createdAt,value
2023-05-16T00:00:38.314Z,0.00
2023-05-16T00:01:38.395Z,0.00
2023-05-16T00:02:38.414Z,0.00
2023-05-16T00:03:38.535Z,0.00
2023-05-16T00:04:38.345Z,0.00
2023-05-16T00:05:38.266Z,0.00
2023-05-16T00:06:38.276Z,0.00
2023-05-16T00:07:38.275Z,0.00
2023-05-16T00:08:38.237Z,0.00
2023-05-16T00:09:38.226Z,0.00
2023-05-16T00:10:38.210Z,0.00
2023-05-16T00:11:38.225Z,0.00
2023-05-16T00:12:38.212Z,0.00
2023-05-16T00:13:38.176Z,0.00
2023-05-16T00:14:38.167Z,0.00
2023-05-16T00:15:38.155Z,0.00
2023-05-16T00:16:38.179Z,0.00
2023-05-16T00:17:38.155Z,0.00
2023-05-16T00:18:38.165Z,0.00
2023-05-16T00:19:38.114Z,0.00
2023-05-16T00:20:38.099Z,0.00
2023-05-16T00:21:38.106Z,0.00
2023-05-16T00:22:38.080Z,0.00
2023-05-16T00:23:38.071Z,0.00
2023-05-16T00:24:38.057Z,0.00
2023-05-16T00:25:38.077Z,0.00
2023-05-16T00:26:38.065Z,0.00
2023-05-16T00:27:38.047Z,0.00
2023-05-16T00:28:38.644Z,0.00
2023-05-16T00:29:38.015Z,0.00
2023-05-16T00:30:38.019Z,0.00
2023-05-16T00:31:38.035Z,0.00
2023-05-16T00:32:37.999Z,0.00
2023-05-16T00:33:37.967Z,0.00
2023-05-16T00:34:37.959Z,0.00
2023-05-16T00:35:37.961Z,0.00
2023-05-16T00:36:37.960Z,0.00
2023-05-16T00:37:37.923Z,0.00
2023-05-16T00:38:37.909Z,0.00
2023-05-16T00:39:37.908Z,0.00
2023-05-16T00:40:37.898Z,0.00
2023-05-16T00:41:37.874Z,0.00
2023-05-16T00:42:37.865Z,0.00
2023-05-16T00:43:37.852Z,0.00
2023-05-16T00:44:37.874Z,0.00
2023-05-16T00:45:37.828Z,0.00
2023-05-16T00:46:37.934Z,0.00
2023-05-16T00:47:37.892Z,0.00
2023-05-16T00:48:37.801Z,0.00
2023-05-16T00:49:37.868Z,0.00
2023-05-16T00:50:37.787Z,0.00
2023-05-16T00:51:37.763Z,0.00
2023-05-16T00:52:37.755Z,0.00
2023-05-16T00:53:37.758Z,0.00
2023-05-16T00:54:37.736Z,0.00
2023-05-16T00:55:37.721Z,0.00
2023-05-16T00:56:37.709Z,0.00
2023-05-16T00:57:37.702Z,0.00
2023-05-16T00:58:37.701Z,0.00
2023-05-16T00:59:37.678Z,0.00
2023-05-16T01:00:37.691Z,0.00
2023-05-16T01:01:37.706Z,0.00
2023-05-16T01:02:37.772Z,0.00
2023-05-16T01:03:37.758Z,0.00
2023-05-16T01:04:37.622Z,0.00
2023-05-16T01:05:37.612Z,0.00
2023-05-16T01:06:38.294Z,0.00
2023-05-16T01:07:37.601Z,0.00
2023-05-16T01:08:37.604Z,0.00
2023-05-16T01:09:37.565Z,0.00
2023-05-16T01:10:37.551Z,0.00
2023-05-16T01:11:37.541Z,0.00
2023-05-16T01:12:37.552Z,0.00
2023-05-16T01:13:37.537Z,0.00
2023-05-16T01:14:37.520Z,0.00
2023-05-16T01:15:37.538Z,0.00
2023-05-16T01:16:37.632Z,0.00
2023-05-16T01:17:37.512Z,0.00
2023-05-16T01:18:37.508Z,0.00
2023-05-16T01:19:37.454Z,0.00
2023-05-16T01:20:37.484Z,0.00
2023-05-16T01:21:37.456Z,0.00
2023-05-16T01:22:37.431Z,0.00
2023-05-16T01:23:37.408Z,0.00
2023-05-16T01:24:37.395Z,0.00
2023-05-16T01:25:37.384Z,0.00
2023-05-16T01:26:37.386Z,0.00
2023-05-16T01:27:37.364Z,0.00
2023-05-16T01:28:37.352Z,0.00
2023-05-16T01:29:37.347Z,0.00
2023-05-16T01:30:37.333Z,0.00
2023-05-16T01:31:37.414Z,0.00
2023-05-16T01:32:37.366Z,0.00
2023-05-16T01:33:37.297Z,0.00
2023-05-16T01:34:37.291Z,0.00
2023-05-16T01:35:37.297Z,0.00
2023-05-16T01:36:37.430Z,0.00
2023-05-16T01:37:37.254Z,0.00
2023-05-16T01:38:37.270Z,0.00
2023-05-16T01:39:37.242Z,0.00
2023-05-16T01:40:37.222Z,0.00
2023-05-16T01:41:37.210Z,0.00
2023-05-16T01:42:37.270Z,0.00
2023-05-16T01:43:37.186Z,0.00
2023-05-16T01:44:37.178Z,0.00
2023-05-16T01:45:37.185Z,0.00
2023-05-16T01:46:37.192Z,0.00
2023-05-16T01:47:37.177Z,0.00
2023-05-16T01:48:37.146Z,0.00
2023-05-16T01:49:37.143Z,0.00
2023-05-16T01:50:37.134Z,0.00
2023-05-16T01:51:37.097Z,0.00
2023-05-16T01:52:37.091Z,0.00
2023-05-16T01:53:37.076Z,0.00
2023-05-16T01:54:37.073Z,0.00
2023-05-16T01:55:37.070Z,0.00
2023-05-16T01:56:37.044Z,0.00
2023-05-16T01:57:37.032Z,0.00
2023-05-16T01:58:37.017Z,0.00
2023-05-16T01:59:37.039Z,0.00
2023-05-16T02:00:37.011Z,0.00
2023-05-16T02:01:37.025Z,0.00
2023-05-16T02:02:37.017Z,0.00
2023-05-16T02:03:37.007Z,0.00
2023-05-16T02:04:36.995Z,0.00
2023-05-16T02:05:36.951Z,0.00
2023-05-16T02:06:36.932Z,0.00
2023-05-16T02:07:36.936Z,0.00
2023-05-16T02:08:36.933Z,0.00
2023-05-16T02:09:36.905Z,0.00
2023-05-16T02:10:36.887Z,0.00
2023-05-16T02:11:36.877Z,0.00
2023-05-16T02:12:36.867Z,0.00
2023-05-16T02:13:36.917Z,0.00
2023-05-16T02:14:36.843Z,0.00
2023-05-16T02:15:36.834Z,0.00
2023-05-16T02:16:36.849Z,0.00
2023-05-16T02:17:36.869Z,0.00
2023-05-16T02:18:36.886Z,0.00
2023-05-16T02:19:36.794Z,0.00
2023-05-16T02:20:36.797Z,0.00
2023-05-16T02:21:36.767Z,0.00
2023-05-16T02:22:36.801Z,0.00
2023-05-16T02:23:36.756Z,0.00
2023-05-16T02:24:36.732Z,0.00
2023-05-16T02:25:36.730Z,0.00
2023-05-16T02:26:36.710Z,0.00
2023-05-16T02:27:36.716Z,0.00
2023-05-16T02:28:36.690Z,0.00
2023-05-16T02:29:36.675Z,0.00
2023-05-16T02:30:36.721Z,0.00
2023-05-16T02:31:36.684Z,0.00
2023-05-16T02:32:36.692Z,0.00
2023-05-16T02:33:36.684Z,0.00
2023-05-16T02:34:36.623Z,0.00
2023-05-16T02:35:36.616Z,0.00
2023-05-16T02:36:36.631Z,0.00
2023-05-16T02:37:36.615Z,0.00
2023-05-16T02:38:36.586Z,0.00
2023-05-16T02:39:36.566Z,0.00
2023-05-16T02:40:36.558Z,0.00
2023-05-16T02:41:36.556Z,0.00
2023-05-16T02:42:36.538Z,0.00
2023-05-16T02:43:36.523Z,0.00
2023-05-16T02:44:36.514Z,0.00
2023-05-16T02:45:36.502Z,4.00
2023-05-16T02:46:36.945Z,4.00
2023-05-16T02:47:36.524Z,4.00
2023-05-16T02:48:36.469Z,0.00
2023-05-16T02:49:36.460Z,4.00
2023-05-16T02:50:36.468Z,4.00
2023-05-16T02:51:36.495Z,4.00
2023-05-16T02:52:36.448Z,4.00
2023-05-16T02:53:36.411Z,4.00
2023-05-16T02:54:36.399Z,4.00
2023-05-16T02:55:36.515Z,8.00
2023-05-16T02:56:36.380Z,4.00
2023-05-16T02:57:36.369Z,8.00
2023-05-16T02:58:36.359Z,8.00
2023-05-16T02:59:36.360Z,8.00
2023-05-16T03:00:36.353Z,8.00
2023-05-16T03:01:36.388Z,8.00
2023-05-16T03:02:36.397Z,12.00
2023-05-16T03:03:36.443Z,12.00
2023-05-16T03:04:36.324Z,16.00
2023-05-16T03:05:36.279Z,12.00
2023-05-16T03:06:36.272Z,16.00
2023-05-16T03:07:36.287Z,16.00
2023-05-16T03:08:36.276Z,16.00
2023-05-16T03:09:36.234Z,16.00
2023-05-16T03:10:36.225Z,16.00
2023-05-16T03:11:36.986Z,20.00
2023-05-16T03:12:36.246Z,20.00
2023-05-16T03:13:36.191Z,20.00
2023-05-16T03:14:36.348Z,24.00
2023-05-16T03:15:36.186Z,24.00
2023-05-16T03:16:36.166Z,24.00
2023-05-16T03:17:36.172Z,32.00
2023-05-16T03:18:36.212Z,32.00
2023-05-16T03:19:36.144Z,32.00
2023-05-16T03:20:36.118Z,32.00
2023-05-16T03:21:36.101Z,32.00
2023-05-16T03:22:36.094Z,36.00
2023-05-16T03:23:36.101Z,40.00
2023-05-16T03:24:36.122Z,44.00
2023-05-16T03:25:36.062Z,44.00
2023-05-16T03:26:36.049Z,48.00
2023-05-16T03:27:36.034Z,56.00
2023-05-16T03:28:36.048Z,60.00
2023-05-16T03:29:36.013Z,64.00
2023-05-16T03:30:36.003Z,64.00
2023-05-16T03:31:36.025Z,64.00
2023-05-16T03:32:36.065Z,68.00
2023-05-16T03:33:35.996Z,76.00
2023-05-16T03:34:35.959Z,76.00
2023-05-16T03:35:35.956Z,84.00
2023-05-16T03:36:35.955Z,80.00
2023-05-16T03:37:35.953Z,84.00
2023-05-16T03:38:35.921Z,88.00
2023-05-16T03:39:35.990Z,84.00
2023-05-16T03:40:35.913Z,88.00
2023-05-16T03:41:35.880Z,80.00
2023-05-16T03:42:35.898Z,88.00
2023-05-16T03:43:35.858Z,100.00
2023-05-16T03:44:35.854Z,104.00
2023-05-16T03:45:35.851Z,116.00
2023-05-16T03:46:35.852Z,116.00
2023-05-16T03:47:35.890Z,120.00
2023-05-16T03:48:35.808Z,120.00
2023-05-16T03:49:35.796Z,120.00
2023-05-16T03:50:35.838Z,124.00
2023-05-16T03:51:35.808Z,124.00
2023-05-16T03:52:35.764Z,128.00
2023-05-16T03:53:35.750Z,128.00
2023-05-16T03:54:35.748Z,120.00
2023-05-16T03:55:35.749Z,124.00
2023-05-16T03:56:35.751Z,128.00
2023-05-16T03:57:35.706Z,120.00
2023-05-16T03:58:35.693Z,132.00
2023-05-16T03:59:35.737Z,124.00
2023-05-16T04:00:35.688Z,128.00
2023-05-16T04:01:35.709Z,128.00
2023-05-16T04:02:35.750Z,124.00
2023-05-16T04:03:35.669Z,120.00
2023-05-16T04:04:35.664Z,124.00
2023-05-16T04:05:35.752Z,128.00
2023-05-16T04:06:35.607Z,124.00
2023-05-16T04:07:35.592Z,124.00
2023-05-16T04:08:35.582Z,132.00
2023-05-16T04:09:35.598Z,128.00
2023-05-16T04:10:35.560Z,132.00
2023-05-16T04:11:35.549Z,144.00
2023-05-16T04:12:35.559Z,152.00
2023-05-16T04:13:35.606Z,164.00
2023-05-16T04:14:35.520Z,152.00
2023-05-16T04:15:35.523Z,148.00
2023-05-16T04:16:35.521Z,164.00
2023-05-16T04:17:35.536Z,172.00
2023-05-16T04:18:35.535Z,172.00
2023-05-16T04:19:35.524Z,176.00
2023-05-16T04:20:35.472Z,200.00
2023-05-16T04:21:35.438Z,200.00
2023-05-16T04:22:35.429Z,212.00
2023-05-16T04:23:35.423Z,208.00
2023-05-16T04:24:35.437Z,200.00
2023-05-16T04:25:35.401Z,224.00
2023-05-16T04:26:35.393Z,228.00
2023-05-16T04:27:35.382Z,232.00
2023-05-16T04:28:35.386Z,244.00
2023-05-16T04:29:35.368Z,232.00
2023-05-16T04:30:35.346Z,232.00
2023-05-16T04:31:35.404Z,236.00
2023-05-16T04:32:35.395Z,236.00
2023-05-16T04:33:35.332Z,248.00
2023-05-16T04:34:36.435Z,268.00
2023-05-16T04:35:35.291Z,248.00
2023-05-16T04:36:35.277Z,248.00
2023-05-16T04:37:35.265Z,264.00
2023-05-16T04:38:35.272Z,272.00
2023-05-16T04:39:35.257Z,264.00
2023-05-16T04:40:35.234Z,272.00
2023-05-16T04:41:35.226Z,288.00
2023-05-16T04:42:35.218Z,272.00
2023-05-16T04:43:35.213Z,300.00
2023-05-16T04:44:35.204Z,292.00
2023-05-16T04:45:37.419Z,280.00
2023-05-16T04:46:35.201Z,280.00
2023-05-16T04:47:35.190Z,296.00
2023-05-16T04:48:35.170Z,308.00
2023-05-16T04:49:35.131Z,336.00
2023-05-16T04:50:35.127Z,332.00
2023-05-16T04:51:35.111Z,300.00
2023-05-16T04:52:35.147Z,368.00
2023-05-16T04:53:35.099Z,364.00
2023-05-16T04:54:35.079Z,348.00
2023-05-16T04:55:35.075Z,372.00
2023-05-16T04:56:35.076Z,376.00
2023-05-16T04:57:35.060Z,356.00
2023-05-16T04:58:35.039Z,420.00
2023-05-16T04:59:35.023Z,388.00
2023-05-16T05:00:35.032Z,376.00
2023-05-16T05:01:35.073Z,412.00
2023-05-16T05:02:35.098Z,428.00
2023-05-16T05:03:34.976Z,420.00
2023-05-16T05:04:34.982Z,424.00
2023-05-16T05:05:35.072Z,432.00
2023-05-16T05:06:34.947Z,484.00
2023-05-16T05:07:34.994Z,488.00
2023-05-16T05:08:34.924Z,480.00
2023-05-16T05:09:34.936Z,544.00
2023-05-16T05:10:34.918Z,492.00
2023-05-16T05:11:34.910Z,500.00
2023-05-16T05:12:34.882Z,524.00
2023-05-16T05:13:34.868Z,516.00
2023-05-16T05:14:34.866Z,532.00
2023-05-16T05:15:34.860Z,540.00
2023-05-16T05:16:34.883Z,528.00
2023-05-16T05:17:35.010Z,548.00
2023-05-16T05:18:34.954Z,568.00
2023-05-16T05:19:34.876Z,576.00
2023-05-16T05:20:34.796Z,592.00
2023-05-16T05:21:34.804Z,608.00
2023-05-16T05:22:34.775Z,588.00
2023-05-16T05:23:34.856Z,604.00
2023-05-16T05:24:34.767Z,644.00
2023-05-16T05:25:36.980Z,640.00
2023-05-16T05:26:34.746Z,616.00
2023-05-16T05:27:34.738Z,600.00
2023-05-16T05:28:34.711Z,608.00
2023-05-16T05:29:34.695Z,580.00
2023-05-16T05:30:34.783Z,580.00
2023-05-16T05:31:34.903Z,572.00
2023-05-16T05:32:34.716Z,592.00
2023-05-16T05:33:34.651Z,628.00
2023-05-16T05:34:34.641Z,676.00
2023-05-16T05:35:34.653Z,644.00
2023-05-16T05:36:34.620Z,652.00
2023-05-16T05:37:34.602Z,624.00
2023-05-16T05:38:34.589Z,628.00
2023-05-16T05:39:34.605Z,684.00
2023-05-16T05:40:34.590Z,648.00
2023-05-16T05:41:34.562Z,596.00
2023-05-16T05:42:34.587Z,608.00
2023-05-16T05:43:34.538Z,592.00
2023-05-16T05:44:34.535Z,596.00
2023-05-16T05:45:34.546Z,588.00
2023-05-16T05:46:34.552Z,632.00
2023-05-16T05:47:34.613Z,632.00
2023-05-16T05:48:34.515Z,676.00
2023-05-16T05:49:34.464Z,736.00
2023-05-16T05:50:34.465Z,808.00
2023-05-16T05:51:34.446Z,888.00
2023-05-16T05:52:34.452Z,968.00
2023-05-16T05:53:34.441Z,1044.00
2023-05-16T05:54:34.416Z,1032.00
2023-05-16T05:55:34.415Z,1024.00
2023-05-16T05:56:34.392Z,1048.00
2023-05-16T05:57:34.398Z,1072.00
2023-05-16T05:58:34.374Z,1096.00
2023-05-16T05:59:34.356Z,1148.00
2023-05-16T06:00:34.353Z,1228.00
2023-05-16T06:01:34.350Z,1244.00
2023-05-16T06:02:34.444Z,1204.00
2023-05-16T06:03:34.377Z,1192.00
2023-05-16T06:04:34.325Z,1136.00
2023-05-16T06:05:34.315Z,1272.00
2023-05-16T06:06:34.316Z,1272.00
2023-05-16T06:07:34.336Z,1248.00
2023-05-16T06:08:34.315Z,1196.00
2023-05-16T06:09:34.293Z,1124.00
2023-05-16T06:10:34.238Z,1112.00
2023-05-16T06:11:34.288Z,1140.00
2023-05-16T06:12:34.239Z,1148.00
2023-05-16T06:13:34.204Z,1156.00
2023-05-16T06:14:34.197Z,1164.00
2023-05-16T06:15:34.179Z,1088.00
2023-05-16T06:16:34.258Z,1040.00
2023-05-16T06:17:34.212Z,1060.00
2023-05-16T06:18:34.189Z,1132.00
2023-05-16T06:19:34.243Z,1244.00
2023-05-16T06:20:34.235Z,1264.00
2023-05-16T06:21:34.156Z,1260.00
2023-05-16T06:22:34.128Z,1296.00
2023-05-16T06:23:34.091Z,1328.00
2023-05-16T06:24:34.088Z,1356.00
2023-05-16T06:25:34.078Z,1340.00
2023-05-16T06:26:34.086Z,1380.00
2023-05-16T06:27:34.066Z,1408.00
2023-05-16T06:28:34.040Z,1484.00
2023-05-16T06:29:34.073Z,1424.00
2023-05-16T06:30:34.095Z,1508.00
2023-05-16T06:31:34.200Z,1496.00
2023-05-16T06:32:34.052Z,1444.00
2023-05-16T06:33:33.986Z,1568.00
2023-05-16T06:34:33.976Z,1540.00
2023-05-16T06:35:33.979Z,1612.00
2023-05-16T06:36:34.069Z,1720.00
2023-05-16T06:37:33.961Z,1652.00
2023-05-16T06:38:33.934Z,1640.00
2023-05-16T06:39:33.931Z,1640.00
2023-05-16T06:40:33.918Z,1664.00
2023-05-16T06:41:33.903Z,1624.00
2023-05-16T06:42:33.888Z,1656.00
2023-05-16T06:43:33.895Z,1720.00
2023-05-16T06:44:33.868Z,1752.00
2023-05-16T06:45:33.869Z,1684.00
2023-05-16T06:46:33.913Z,1660.00
2023-05-16T06:47:33.896Z,1616.00
2023-05-16T06:48:33.825Z,1596.00
2023-05-16T06:49:33.838Z,1600.00
2023-05-16T06:50:33.815Z,1704.00
2023-05-16T06:51:33.797Z,1868.00
2023-05-16T06:52:33.831Z,1896.00
2023-05-16T06:53:33.765Z,1820.00
2023-05-16T06:54:33.790Z,1868.00
2023-05-16T06:55:33.743Z,1824.00
2023-05-16T06:56:33.727Z,1728.00
2023-05-16T06:57:33.717Z,1724.00
2023-05-16T06:58:33.715Z,1728.00
2023-05-16T06:59:33.727Z,1800.00
2023-05-16T07:00:33.689Z,1908.00
2023-05-16T07:01:33.736Z,1752.00
2023-05-16T07:02:33.770Z,1604.00
2023-05-16T07:03:33.874Z,1584.00
2023-05-16T07:04:33.666Z,1572.00
2023-05-16T07:05:33.641Z,1620.00
2023-05-16T07:06:33.717Z,1732.00
2023-05-16T07:07:33.630Z,1740.00
2023-05-16T07:08:33.629Z,1724.00
2023-05-16T07:09:34.452Z,1736.00
2023-05-16T07:10:33.583Z,1780.00
2023-05-16T07:11:33.565Z,1924.00
2023-05-16T07:12:33.577Z,1968.00
2023-05-16T07:13:35.698Z,2024.00
2023-05-16T07:14:33.545Z,1960.00
2023-05-16T07:15:33.519Z,1952.00
2023-05-16T07:16:33.601Z,1880.00
2023-05-16T07:17:33.589Z,1856.00
2023-05-16T07:18:33.525Z,1748.00
2023-05-16T07:19:33.477Z,1788.00
2023-05-16T07:20:33.474Z,1840.00
2023-05-16T07:21:33.462Z,1812.00
2023-05-16T07:22:33.459Z,1776.00
2023-05-16T07:23:33.443Z,1840.00
2023-05-16T07:24:33.476Z,1884.00
2023-05-16T07:25:33.413Z,1900.00
2023-05-16T07:26:33.399Z,1968.00
2023-05-16T07:27:33.406Z,2108.00
2023-05-16T07:28:33.385Z,2032.00
2023-05-16T07:29:33.395Z,2024.00
2023-05-16T07:30:33.366Z,2048.00
2023-05-16T07:31:33.422Z,2168.00
2023-05-16T07:32:33.387Z,2152.00
2023-05-16T07:33:33.326Z,2188.00
2023-05-16T07:34:33.316Z,2312.00
2023-05-16T07:35:33.313Z,2292.00
2023-05-16T07:36:33.341Z,2528.00
2023-05-16T07:37:33.307Z,2688.00
2023-05-16T07:38:33.264Z,2592.00
2023-05-16T07:39:41.004Z,2508.00
2023-05-16T07:40:33.269Z,2392.00
2023-05-16T07:41:33.253Z,2676.00
2023-05-16T07:42:33.230Z,2592.00
2023-05-16T07:43:33.211Z,2516.00
2023-05-16T07:44:33.206Z,2844.00
2023-05-16T07:45:33.236Z,4504.00
2023-05-16T07:46:33.250Z,4060.00
2023-05-16T07:47:33.215Z,3524.00
2023-05-16T07:48:33.174Z,3236.00
2023-05-16T07:49:33.165Z,2912.00
2023-05-16T07:50:33.151Z,2732.00
2023-05-16T07:51:33.121Z,2548.00
2023-05-16T07:52:33.121Z,2424.00
2023-05-16T07:53:33.101Z,2368.00
2023-05-16T07:54:33.104Z,2344.00
2023-05-16T07:55:33.152Z,2252.00
2023-05-16T07:56:33.067Z,2148.00
2023-05-16T07:57:33.061Z,2060.00
2023-05-16T07:58:33.047Z,2012.00
2023-05-16T07:59:33.141Z,2068.00
2023-05-16T08:00:33.035Z,2076.00
2023-05-16T08:01:33.011Z,1992.00
2023-05-16T08:02:33.056Z,1976.00
2023-05-16T08:03:33.287Z,1928.00
2023-05-16T08:04:32.991Z,1992.00
2023-05-16T08:05:33.042Z,2100.00
2023-05-16T08:06:32.962Z,2180.00
2023-05-16T08:07:32.943Z,2204.00
2023-05-16T08:08:32.934Z,2168.00
2023-05-16T08:09:32.940Z,2100.00
2023-05-16T08:10:32.937Z,2100.00
2023-05-16T08:11:32.919Z,2044.00
2023-05-16T08:12:32.907Z,2088.00
2023-05-16T08:13:32.915Z,2084.00
2023-05-16T08:14:32.884Z,1964.00
2023-05-16T08:15:32.856Z,1940.00
2023-05-16T08:16:32.934Z,1908.00
2023-05-16T08:17:32.880Z,1804.00
2023-05-16T08:18:32.885Z,1796.00
2023-05-16T08:19:32.820Z,1764.00
2023-05-16T08:20:32.807Z,1772.00
2023-05-16T08:21:32.803Z,1756.00
2023-05-16T08:22:32.780Z,1732.00
2023-05-16T08:23:32.796Z,1732.00
2023-05-16T08:24:32.759Z,1696.00
2023-05-16T08:25:32.745Z,1700.00
2023-05-16T08:26:32.739Z,1708.00
2023-05-16T08:27:32.759Z,1736.00
2023-05-16T08:28:32.714Z,1776.00
2023-05-16T08:29:32.739Z,1720.00
2023-05-16T08:30:32.707Z,1672.00
2023-05-16T08:31:32.766Z,1740.00
2023-05-16T08:32:32.741Z,1764.00
2023-05-16T08:33:32.681Z,1756.00
2023-05-16T08:34:32.696Z,1748.00
2023-05-16T08:35:32.637Z,1736.00
2023-05-16T08:36:32.628Z,1696.00
2023-05-16T08:37:32.627Z,1688.00
2023-05-16T08:38:32.635Z,1704.00
2023-05-16T08:39:32.602Z,1704.00
2023-05-16T08:40:32.579Z,1732.00
2023-05-16T08:41:32.571Z,1720.00
2023-05-16T08:42:32.572Z,1684.00
2023-05-16T08:43:32.619Z,1652.00
2023-05-16T08:44:32.535Z,1648.00
2023-05-16T08:45:32.536Z,1672.00
2023-05-16T08:46:32.569Z,1768.00
2023-05-16T08:47:32.589Z,1860.00
2023-05-16T08:48:32.491Z,1908.00
2023-05-16T08:49:32.491Z,1916.00
2023-05-16T08:50:32.474Z,1960.00
2023-05-16T08:51:32.495Z,1896.00
2023-05-16T08:52:32.478Z,1880.00
2023-05-16T08:53:32.444Z,1940.00
2023-05-16T08:54:32.425Z,1936.00
2023-05-16T08:55:32.423Z,2260.00
2023-05-16T08:56:32.420Z,2468.00
2023-05-16T08:57:32.404Z,2616.00
2023-05-16T08:58:32.396Z,2404.00
2023-05-16T08:59:32.418Z,2568.00
2023-05-16T09:00:32.411Z,2928.00
2023-05-16T09:01:32.450Z,2860.00
2023-05-16T09:02:32.378Z,2916.00
2023-05-16T09:03:32.369Z,3204.00
2023-05-16T09:04:32.461Z,2900.00
2023-05-16T09:05:32.454Z,2696.00
2023-05-16T09:06:32.336Z,2628.00
2023-05-16T09:07:32.293Z,2616.00
2023-05-16T09:08:32.273Z,2416.00
2023-05-16T09:09:32.276Z,2360.00
2023-05-16T09:10:32.253Z,2280.00
2023-05-16T09:11:32.264Z,2588.00
2023-05-16T09:12:32.237Z,2708.00
2023-05-16T09:13:32.237Z,2508.00
2023-05-16T09:14:32.208Z,2304.00
2023-05-16T09:15:32.260Z,2356.00
2023-05-16T09:16:32.303Z,2408.00
2023-05-16T09:17:38.931Z,2312.00
2023-05-16T09:18:32.343Z,2324.00
2023-05-16T09:19:32.184Z,2244.00
2023-05-16T09:20:32.154Z,2160.00
2023-05-16T09:21:32.154Z,2180.00
2023-05-16T09:22:32.128Z,2160.00
2023-05-16T09:23:32.144Z,2120.00
2023-05-16T09:24:32.126Z,2044.00
2023-05-16T09:25:32.554Z,1964.00
2023-05-16T09:26:32.080Z,1840.00
2023-05-16T09:27:32.076Z,1820.00
2023-05-16T09:28:32.060Z,1852.00
2023-05-16T09:29:32.062Z,1904.00
2023-05-16T09:30:32.063Z,1864.00
2023-05-16T09:31:32.109Z,1836.00
2023-05-16T09:32:32.051Z,1812.00
2023-05-16T09:33:32.014Z,1684.00
2023-05-16T09:34:32.007Z,1720.00
2023-05-16T09:36:31.969Z,1816.00
2023-05-16T09:37:31.960Z,1784.00
2023-05-16T09:38:32.931Z,1720.00
2023-05-16T09:39:31.960Z,1680.00
2023-05-16T09:40:31.934Z,1668.00
2023-05-16T09:41:31.916Z,1716.00
2023-05-16T09:42:31.929Z,1836.00
2023-05-16T09:43:31.904Z,1836.00
2023-05-16T09:44:31.901Z,1912.00
2023-05-16T09:45:31.878Z,1944.00
2023-05-16T09:46:31.922Z,1996.00
2023-05-16T09:47:31.938Z,1988.00
2023-05-16T09:48:31.855Z,2108.00
2023-05-16T09:49:31.845Z,2300.00
2023-05-16T09:50:31.816Z,2456.00
2023-05-16T09:51:32.133Z,2312.00
2023-05-16T09:52:31.817Z,2200.00
2023-05-16T09:53:31.781Z,2056.00
2023-05-16T09:54:31.801Z,1884.00
2023-05-16T09:55:31.783Z,1736.00
2023-05-16T09:56:31.748Z,1744.00
2023-05-16T09:57:31.751Z,1692.00
2023-05-16T09:58:31.754Z,1660.00
2023-05-16T09:59:31.716Z,1596.00
2023-05-16T10:00:31.719Z,1556.00
2023-05-16T10:01:31.733Z,1636.00
2023-05-16T10:02:31.860Z,1728.00
2023-05-16T10:03:31.926Z,1828.00
2023-05-16T10:04:31.785Z,1904.00
2023-05-16T10:05:31.657Z,2416.00
2023-05-16T10:06:31.643Z,2752.00
2023-05-16T10:07:31.653Z,2648.00
2023-05-16T10:08:31.633Z,2360.00
2023-05-16T10:09:31.602Z,2172.00
2023-05-16T10:10:31.658Z,2156.00
2023-05-16T10:11:31.597Z,2160.00
2023-05-16T10:12:31.582Z,2004.00
2023-05-16T10:13:31.569Z,1956.00
2023-05-16T10:14:31.550Z,1976.00
2023-05-16T10:15:31.661Z,2128.00
2023-05-16T10:16:31.576Z,2224.00
2023-05-16T10:17:31.563Z,2376.00
2023-05-16T10:18:31.596Z,2320.00
2023-05-16T10:19:31.601Z,2204.00
2023-05-16T10:20:31.495Z,2096.00
2023-05-16T10:21:31.502Z,2012.00
2023-05-16T10:22:31.475Z,1936.00
2023-05-16T10:23:31.483Z,1872.00
2023-05-16T10:24:31.442Z,1824.00
2023-05-16T10:25:31.771Z,1824.00
2023-05-16T10:26:31.423Z,1844.00
2023-05-16T10:27:31.425Z,1880.00
2023-05-16T10:28:31.399Z,1852.00
2023-05-16T10:29:37.376Z,1808.00
2023-05-16T10:30:32.376Z,1820.00
2023-05-16T10:31:31.390Z,2152.00
2023-05-16T10:32:31.392Z,2616.00
2023-05-16T10:33:31.340Z,3208.00
2023-05-16T10:34:31.330Z,3812.00
2023-05-16T10:35:31.462Z,4568.00
2023-05-16T10:36:31.312Z,4800.00
2023-05-16T10:37:31.332Z,4828.00
2023-05-16T10:38:31.284Z,5160.00
2023-05-16T10:39:31.277Z,5500.00
2023-05-16T10:40:31.278Z,5052.00
2023-05-16T10:41:31.285Z,4328.00
2023-05-16T10:42:31.256Z,3544.00
2023-05-16T10:43:31.309Z,2968.00
2023-05-16T10:44:31.217Z,2612.00
2023-05-16T10:45:32.851Z,2268.00
2023-05-16T10:46:31.268Z,2040.00
2023-05-16T10:47:31.194Z,1872.00
2023-05-16T10:48:31.182Z,1764.00
2023-05-16T10:49:31.189Z,1692.00
2023-05-16T10:50:31.167Z,1640.00
2023-05-16T10:51:31.202Z,1596.00
2023-05-16T10:52:31.131Z,1584.00
2023-05-16T10:53:31.246Z,1568.00
2023-05-16T10:54:33.406Z,1548.00
2023-05-16T10:55:31.095Z,1496.00
2023-05-16T10:56:31.102Z,1448.00
2023-05-16T10:57:31.079Z,1420.00
2023-05-16T10:58:31.072Z,1400.00
2023-05-16T10:59:31.064Z,1380.00
2023-05-16T11:00:31.076Z,1348.00
2023-05-16T11:01:31.277Z,1324.00
2023-05-16T11:02:31.073Z,1324.00
2023-05-16T11:03:31.112Z,1348.00
2023-05-16T11:04:31.011Z,1428.00
2023-05-16T11:05:31.008Z,1508.00
2023-05-16T11:06:31.002Z,1708.00
2023-05-16T11:07:31.041Z,2168.00
2023-05-16T11:08:31.028Z,2664.00
2023-05-16T11:09:30.950Z,2868.00
2023-05-16T11:10:30.936Z,2972.00
2023-05-16T11:11:30.931Z,3272.00
2023-05-16T11:12:30.915Z,3596.00
2023-05-16T11:13:30.932Z,3820.00
2023-05-16T11:14:30.897Z,3776.00
2023-05-16T11:15:31.065Z,3476.00
2023-05-16T11:16:30.901Z,3276.00
2023-05-16T11:17:30.982Z,3464.00
2023-05-16T11:18:31.117Z,3744.00
2023-05-16T11:19:30.835Z,3920.00
2023-05-16T11:20:30.876Z,4052.00
2023-05-16T11:21:30.815Z,3732.00
2023-05-16T11:22:30.854Z,3460.00
2023-05-16T11:23:39.053Z,3276.00
2023-05-16T11:24:30.778Z,3148.00
2023-05-16T11:25:30.766Z,2936.00
2023-05-16T11:26:30.757Z,2920.00
2023-05-16T11:27:30.766Z,2856.00
2023-05-16T11:28:30.735Z,2852.00
2023-05-16T11:29:30.726Z,2896.00
2023-05-16T11:30:30.717Z,2976.00
2023-05-16T11:31:30.818Z,2844.00
2023-05-16T11:32:30.732Z,2548.00
2023-05-16T11:33:30.678Z,2420.00
2023-05-16T11:34:30.665Z,2384.00
2023-05-16T11:35:30.888Z,2560.00
2023-05-16T11:36:37.704Z,2672.00
2023-05-16T11:37:30.635Z,2768.00
2023-05-16T11:38:30.627Z,2712.00
2023-05-16T11:39:30.692Z,2572.00
2023-05-16T11:40:30.607Z,2484.00
2023-05-16T11:41:30.608Z,2468.00
2023-05-16T11:42:30.593Z,2776.00
2023-05-16T11:43:30.573Z,2792.00
2023-05-16T11:44:30.564Z,2736.00
2023-05-16T11:45:30.637Z,2688.00
2023-05-16T11:46:30.648Z,2704.00
2023-05-16T11:47:30.579Z,2664.00
2023-05-16T11:49:30.506Z,3224.00
2023-05-16T11:50:30.508Z,3640.00
2023-05-16T11:51:30.490Z,4004.00
2023-05-16T11:52:30.506Z,4272.00
2023-05-16T11:53:30.471Z,4196.00
2023-05-16T11:54:30.454Z,4164.00
2023-05-16T11:55:41.108Z,4396.00
2023-05-16T11:56:31.437Z,6120.00
2023-05-16T11:57:30.420Z,6028.00
2023-05-16T11:58:30.412Z,6320.00
2023-05-16T11:59:30.426Z,6720.00
2023-05-16T12:00:30.405Z,7056.00
2023-05-16T12:01:30.454Z,7376.00
2023-05-16T12:02:30.444Z,7500.00
2023-05-16T12:03:30.392Z,7352.00
2023-05-16T12:04:30.538Z,6744.00
2023-05-16T12:05:30.546Z,6296.00
2023-05-16T12:06:30.327Z,6216.00
2023-05-16T12:07:30.314Z,5972.00
2023-05-16T12:08:30.301Z,5732.00
2023-05-16T12:09:30.370Z,5668.00
2023-05-16T12:10:30.435Z,5656.00
2023-05-16T12:11:30.302Z,5352.00
2023-05-16T12:12:30.260Z,5036.00
2023-05-16T12:13:30.270Z,5048.00
2023-05-16T12:14:30.255Z,4764.00
2023-05-16T12:15:30.485Z,4324.00
2023-05-16T12:16:30.282Z,4108.00
2023-05-16T12:17:30.219Z,4040.00
2023-05-16T12:18:30.309Z,3876.00
2023-05-16T12:19:30.277Z,4116.00
2023-05-16T12:20:30.173Z,4428.00
2023-05-16T12:21:30.169Z,4548.00
2023-05-16T12:22:30.148Z,4372.00
2023-05-16T12:23:30.173Z,4660.00
2023-05-16T12:24:30.467Z,4376.00
2023-05-16T12:25:30.406Z,4180.00
2023-05-16T12:26:30.107Z,3988.00
2023-05-16T12:27:30.141Z,3652.00
2023-05-16T12:28:30.096Z,3364.00
2023-05-16T12:29:30.079Z,3028.00
2023-05-16T12:30:30.606Z,2852.00